Minneapolis, Minnesota
Traffic Map
Current Weather Conditions
Minneapolis, Minnesota
Overcast Light Snow
Overcast
27°
Feels Like: 19°
Wind Chill: 19° Ceiling: 2800
Heat Index: 27° Visibility: 2mi
Dew Point: 24° Wind: 7mph
Humidity: 89% Direction: 130° (SE)
Pressure: 29.75in Gusts: 0mph
Raw Report DataKMSP 160053Z 13006KT 2SM -SN BR OVC028 M03/M04 A2975 RMK AO2 SLP087 P0000 T10281044
Traffic Incident Summary
Active as of:
Severity:
Category:
InformationThere was an issue retrieving the traffic information for this location. Please try a different location or try again shortly.
Advertisements